createdAt,value
2018-03-26T00:00:40.152Z,17.70
2018-03-26T00:03:08.425Z,17.47
2018-03-26T00:05:36.702Z,17.83
2018-03-26T00:08:04.972Z,17.27
2018-03-26T00:10:34.035Z,18.40
2018-03-26T00:13:02.303Z,17.97
2018-03-26T00:15:30.590Z,17.03
2018-03-26T00:20:34.261Z,17.43
2018-03-26T00:23:02.532Z,17.77
2018-03-26T00:25:30.813Z,16.60
2018-03-26T00:27:59.078Z,18.87
2018-03-26T00:30:27.341Z,16.70
2018-03-26T00:32:55.615Z,16.00
2018-03-26T00:35:23.885Z,17.30
2018-03-26T00:37:52.909Z,16.53
2018-03-26T00:40:21.196Z,17.70
2018-03-26T00:42:49.475Z,16.60
2018-03-26T00:45:17.744Z,18.07
2018-03-26T00:47:46.011Z,16.13
2018-03-26T00:50:14.279Z,17.63
2018-03-26T00:52:42.555Z,17.87
2018-03-26T00:55:10.823Z,17.93
2018-03-26T00:57:39.109Z,16.30
2018-03-26T01:00:07.352Z,16.63
2018-03-26T01:02:35.615Z,17.77
2018-03-26T01:05:03.873Z,16.33
2018-03-26T01:07:32.145Z,16.67
2018-03-26T01:10:00.393Z,17.07
2018-03-26T01:12:28.740Z,16.83
2018-03-26T01:14:57.018Z,16.97
2018-03-26T01:17:26.071Z,17.20
2018-03-26T01:19:54.349Z,17.83
2018-03-26T01:22:22.611Z,17.50
2018-03-26T01:24:50.865Z,17.20
2018-03-26T01:27:19.150Z,17.23
2018-03-26T01:29:47.389Z,18.63
2018-03-26T01:32:16.429Z,18.13
2018-03-26T01:34:44.680Z,17.17
2018-03-26T01:37:12.959Z,19.87
2018-03-26T01:39:41.211Z,17.73
2018-03-26T01:42:09.500Z,17.80
2018-03-26T01:44:37.792Z,18.17
2018-03-26T01:47:06.084Z,17.43
2018-03-26T01:49:34.351Z,17.20
2018-03-26T01:52:02.663Z,18.17
2018-03-26T01:54:30.919Z,18.30
2018-03-26T01:56:59.181Z,18.63
2018-03-26T01:59:27.509Z,17.20
2018-03-26T02:01:55.769Z,16.63
2018-03-26T02:04:24.044Z,18.30
2018-03-26T02:06:52.289Z,18.03
2018-03-26T02:09:20.579Z,17.10
2018-03-26T02:11:48.835Z,17.40
2018-03-26T02:14:17.075Z,17.80
2018-03-26T02:16:46.108Z,18.07
2018-03-26T02:19:14.364Z,18.77
2018-03-26T02:21:42.641Z,18.50
2018-03-26T02:24:10.899Z,18.27
2018-03-26T02:26:40.012Z,19.47
2018-03-26T02:29:08.240Z,18.53
2018-03-26T02:31:36.515Z,18.80
2018-03-26T02:34:05.549Z,19.60
2018-03-26T02:36:34.600Z,18.43
2018-03-26T02:39:02.839Z,19.20
2018-03-26T02:41:31.130Z,19.10
2018-03-26T02:43:59.374Z,20.27
2018-03-26T02:46:27.648Z,20.60
2018-03-26T02:48:55.909Z,20.77
2018-03-26T02:51:24.945Z,19.80
2018-03-26T02:53:53.189Z,19.80
2018-03-26T02:56:22.237Z,18.77
2018-03-26T02:58:50.483Z,17.77
2018-03-26T03:01:18.751Z,18.80
2018-03-26T03:03:47.022Z,19.47
2018-03-26T03:06:15.278Z,18.27
2018-03-26T03:08:44.307Z,19.43
2018-03-26T03:11:12.569Z,19.43
2018-03-26T03:13:40.844Z,18.80
2018-03-26T03:16:09.124Z,19.07
2018-03-26T03:18:37.407Z,18.63
2018-03-26T03:21:05.684Z,19.33
2018-03-26T03:23:33.948Z,20.00
2018-03-26T03:26:02.232Z,20.33
2018-03-26T03:28:30.497Z,19.50
2018-03-26T03:30:58.764Z,19.07
2018-03-26T03:33:27.808Z,20.27
2018-03-26T03:35:56.074Z,20.57
2018-03-26T03:38:24.349Z,22.30
2018-03-26T03:40:52.649Z,23.50
2018-03-26T03:43:20.903Z,23.50
2018-03-26T03:45:49.179Z,22.43
2018-03-26T03:48:17.429Z,23.23
2018-03-26T03:50:45.704Z,22.70
2018-03-26T03:53:13.969Z,23.17
2018-03-26T03:55:42.243Z,23.43
2018-03-26T03:58:11.270Z,24.07
2018-03-26T04:00:39.608Z,24.27
2018-03-26T04:03:07.859Z,23.77
2018-03-26T04:05:36.135Z,25.43
2018-03-26T04:08:04.384Z,23.30
2018-03-26T04:10:32.647Z,23.23
2018-03-26T04:13:00.918Z,23.93
2018-03-26T04:15:29.345Z,22.13
2018-03-26T04:17:57.593Z,23.10
2018-03-26T04:20:25.859Z,23.03
2018-03-26T04:22:54.128Z,23.73
2018-03-26T04:25:22.391Z,22.63
2018-03-26T04:27:50.655Z,24.17
2018-03-26T04:30:18.901Z,23.60
2018-03-26T04:32:47.152Z,24.20
2018-03-26T04:35:15.422Z,23.33
2018-03-26T04:37:43.680Z,23.90
2018-03-26T04:40:11.939Z,23.77
2018-03-26T04:42:40.215Z,22.90
2018-03-26T04:45:08.476Z,22.47
2018-03-26T04:47:36.762Z,22.63
2018-03-26T04:50:05.823Z,23.27
2018-03-26T04:52:34.051Z,22.10
2018-03-26T04:55:02.320Z,22.47
2018-03-26T04:57:30.607Z,23.00
2018-03-26T04:59:58.892Z,23.63
2018-03-26T05:02:27.268Z,25.23
2018-03-26T05:04:55.523Z,24.30
2018-03-26T05:07:23.772Z,22.70
2018-03-26T05:09:52.830Z,23.57
2018-03-26T05:12:21.092Z,22.33
2018-03-26T05:14:49.382Z,24.03
2018-03-26T05:17:17.640Z,23.17
2018-03-26T05:19:45.904Z,24.73
2018-03-26T05:22:14.160Z,24.33
2018-03-26T05:24:43.192Z,23.27
2018-03-26T05:27:11.451Z,22.80
2018-03-26T05:29:39.720Z,22.50
2018-03-26T05:32:08.014Z,22.73
2018-03-26T05:34:36.276Z,23.47
2018-03-26T05:37:04.539Z,23.83
2018-03-26T05:39:32.805Z,24.57
2018-03-26T05:42:01.860Z,22.93
2018-03-26T05:44:30.121Z,23.80
2018-03-26T05:46:58.394Z,24.67
2018-03-26T05:49:26.660Z,23.43
2018-03-26T05:51:54.953Z,24.03
2018-03-26T05:54:23.228Z,23.70
2018-03-26T05:56:52.301Z,22.93
2018-03-26T05:59:20.587Z,23.27
2018-03-26T06:01:48.886Z,23.47
2018-03-26T06:04:17.171Z,22.70
2018-03-26T06:06:45.437Z,22.87
2018-03-26T06:09:13.700Z,23.50
2018-03-26T06:11:41.981Z,23.70
2018-03-26T06:14:10.247Z,24.17
2018-03-26T06:16:50.468Z,24.03
2018-03-26T06:19:18.699Z,24.57
2018-03-26T06:21:47.754Z,25.50
2018-03-26T06:24:16.025Z,23.10
2018-03-26T06:26:45.059Z,26.10
2018-03-26T06:29:13.307Z,25.60
2018-03-26T06:31:41.576Z,25.23
2018-03-26T06:34:09.884Z,25.97
2018-03-26T06:36:53.968Z,25.17
2018-03-26T06:39:23.888Z,27.20
2018-03-26T06:41:52.144Z,26.20
2018-03-26T06:44:20.472Z,26.00
2018-03-26T06:46:48.743Z,26.03
2018-03-26T06:49:17.018Z,27.20
2018-03-26T06:51:45.297Z,27.47
2018-03-26T06:54:14.327Z,27.30
2018-03-26T06:56:42.627Z,26.47
2018-03-26T06:59:10.901Z,26.80
2018-03-26T07:01:39.968Z,27.23
2018-03-26T07:04:09.779Z,27.67
2018-03-26T07:06:38.736Z,26.77
2018-03-26T07:09:07.863Z,29.50
2018-03-26T07:11:36.175Z,29.37
2018-03-26T07:14:04.433Z,29.53
2018-03-26T07:16:32.732Z,28.80
2018-03-26T07:19:01.055Z,29.57
2018-03-26T07:21:29.267Z,31.70
2018-03-26T07:23:57.524Z,31.83
2018-03-26T07:26:25.813Z,29.97
2018-03-26T07:28:54.126Z,31.17
2018-03-26T07:31:22.397Z,32.03
2018-03-26T07:33:50.655Z,32.70
2018-03-26T07:36:18.951Z,30.17
2018-03-26T07:38:47.222Z,32.40
2018-03-26T07:41:15.515Z,31.87
2018-03-26T07:43:44.553Z,33.17
2018-03-26T07:46:12.816Z,35.70
2018-03-26T07:48:41.092Z,33.57
2018-03-26T07:51:09.387Z,32.77
2018-03-26T07:53:37.704Z,33.70
2018-03-26T07:56:05.986Z,33.73
2018-03-26T07:58:35.715Z,33.37
2018-03-26T08:01:04.763Z,32.13
2018-03-26T08:03:33.037Z,32.73
2018-03-26T08:06:01.317Z,33.07
2018-03-26T08:08:29.656Z,33.70
2018-03-26T08:10:57.915Z,34.17
2018-03-26T08:13:26.947Z,32.73
2018-03-26T08:15:55.195Z,33.37
2018-03-26T08:18:23.527Z,34.57
2018-03-26T08:20:51.773Z,32.97
2018-03-26T08:23:20.079Z,33.43
2018-03-26T08:25:48.340Z,33.43
2018-03-26T08:28:16.615Z,31.87
2018-03-26T08:30:44.897Z,34.87
2018-03-26T08:33:13.198Z,33.00
2018-03-26T08:35:41.494Z,33.33
2018-03-26T08:38:09.755Z,32.47
2018-03-26T08:40:38.779Z,32.50
2018-03-26T08:43:07.080Z,33.37
2018-03-26T08:45:35.394Z,35.60
2018-03-26T08:48:03.676Z,33.40
2018-03-26T08:50:32.005Z,33.47
2018-03-26T08:53:00.560Z,35.20
2018-03-26T08:55:29.638Z,33.40
2018-03-26T08:57:58.683Z,33.40
2018-03-26T09:00:26.997Z,32.77
2018-03-26T09:02:55.247Z,34.03
2018-03-26T09:05:23.550Z,33.73
2018-03-26T09:07:51.847Z,33.50
2018-03-26T09:10:20.118Z,34.57
2018-03-26T09:12:49.152Z,33.37
2018-03-26T09:15:17.429Z,34.43
2018-03-26T09:17:45.719Z,32.53
2018-03-26T09:20:14.004Z,33.30
2018-03-26T09:22:42.281Z,34.80
2018-03-26T09:25:10.542Z,33.33
2018-03-26T09:27:38.819Z,32.87
2018-03-26T09:30:07.110Z,33.13
2018-03-26T09:32:35.386Z,32.63
2018-03-26T09:35:03.661Z,31.30
2018-03-26T09:37:31.926Z,33.13
2018-03-26T09:40:00.233Z,33.03
2018-03-26T09:42:28.495Z,34.77
2018-03-26T09:44:56.755Z,32.50
2018-03-26T09:47:25.070Z,32.40
2018-03-26T09:49:53.370Z,33.47
2018-03-26T09:52:22.432Z,34.70
2018-03-26T09:54:50.761Z,33.93
2018-03-26T09:57:19.063Z,32.80
2018-03-26T09:59:47.326Z,34.33
2018-03-26T10:02:15.738Z,32.27
2018-03-26T10:04:44.108Z,32.13
2018-03-26T10:07:12.592Z,32.27
2018-03-26T10:09:40.845Z,34.00
2018-03-26T10:12:09.127Z,34.50
2018-03-26T10:14:37.406Z,32.60
2018-03-26T10:17:05.721Z,33.23
2018-03-26T10:19:33.997Z,33.23
2018-03-26T10:22:03.053Z,32.63
2018-03-26T10:24:31.385Z,32.40
2018-03-26T10:26:59.671Z,33.63
2018-03-26T10:29:27.992Z,32.93
2018-03-26T10:31:56.295Z,33.10
2018-03-26T10:34:24.615Z,33.73
2018-03-26T10:36:53.666Z,33.30
2018-03-26T10:39:21.954Z,36.00
2018-03-26T10:41:50.314Z,34.43
2018-03-26T10:44:18.593Z,33.97
2018-03-26T10:46:46.910Z,34.20
2018-03-26T10:49:15.949Z,35.40
2018-03-26T10:51:44.237Z,34.10
2018-03-26T10:54:12.532Z,35.73
2018-03-26T10:56:40.844Z,33.73
2018-03-26T10:59:09.223Z,33.20
2018-03-26T11:01:37.504Z,35.77
2018-03-26T11:04:05.779Z,36.17
2018-03-26T11:06:34.048Z,34.70
2018-03-26T11:09:02.340Z,34.70
2018-03-26T11:11:30.637Z,34.73
2018-03-26T11:13:58.916Z,34.50
2018-03-26T11:16:27.207Z,36.00
2018-03-26T11:18:55.489Z,35.10
2018-03-26T11:21:23.787Z,35.07
2018-03-26T11:23:52.074Z,36.07
2018-03-26T11:26:20.393Z,33.10
2018-03-26T11:28:48.669Z,34.50
2018-03-26T11:31:17.022Z,33.70
2018-03-26T11:33:45.308Z,30.83
2018-03-26T11:36:13.616Z,33.07
2018-03-26T11:38:41.963Z,35.13
2018-03-26T11:41:10.217Z,34.97
2018-03-26T11:43:38.532Z,34.87
2018-03-26T11:46:06.793Z,32.57
2018-03-26T11:48:35.066Z,32.80
2018-03-26T11:51:04.205Z,34.00
2018-03-26T11:53:33.241Z,34.13
2018-03-26T11:56:01.529Z,34.17
2018-03-26T11:58:29.794Z,34.33
2018-03-26T12:00:58.073Z,33.97
2018-03-26T12:03:26.350Z,34.23
2018-03-26T12:05:54.608Z,33.23
2018-03-26T12:08:22.901Z,34.90
2018-03-26T12:10:51.182Z,31.57
2018-03-26T12:13:19.472Z,32.70
2018-03-26T12:15:47.762Z,34.83
2018-03-26T12:18:16.046Z,34.13
2018-03-26T12:20:56.263Z,33.73
2018-03-26T12:23:36.434Z,32.63
2018-03-26T12:26:04.690Z,31.03
2018-03-26T12:28:44.729Z,31.17
2018-03-26T12:31:12.988Z,32.00
2018-03-26T12:33:54.028Z,30.27
2018-03-26T12:36:22.286Z,31.60
2018-03-26T12:38:50.831Z,30.67
2018-03-26T12:41:19.844Z,30.77
2018-03-26T12:43:48.161Z,31.13
2018-03-26T12:46:28.398Z,31.80
2018-03-26T12:48:56.680Z,32.73
2018-03-26T12:51:36.885Z,30.57
2018-03-26T12:54:05.913Z,31.87
2018-03-26T12:56:34.191Z,30.13
2018-03-26T12:59:02.470Z,30.63
2018-03-26T13:01:42.704Z,30.87
2018-03-26T13:04:11.006Z,31.83
2018-03-26T13:06:39.293Z,31.63
2018-03-26T13:09:07.573Z,30.40
2018-03-26T13:11:35.847Z,46.30
2018-03-26T13:14:04.146Z,29.13
2018-03-26T13:16:32.500Z,30.27
2018-03-26T13:19:00.757Z,32.17
2018-03-26T13:21:29.056Z,29.27
2018-03-26T13:23:57.332Z,29.03
2018-03-26T13:26:25.591Z,30.33
2018-03-26T13:28:53.885Z,30.07
2018-03-26T13:31:22.920Z,29.67
2018-03-26T13:33:51.971Z,32.70
2018-03-26T13:36:20.265Z,32.67
2018-03-26T13:38:48.548Z,32.30
2018-03-26T13:41:17.570Z,33.63
2018-03-26T13:43:45.874Z,33.67
2018-03-26T13:46:14.157Z,32.90
2018-03-26T13:48:42.428Z,32.33
2018-03-26T13:51:10.713Z,30.70
2018-03-26T13:53:38.980Z,32.67
2018-03-26T13:56:07.264Z,33.27
2018-03-26T13:58:35.597Z,33.60
2018-03-26T14:01:03.825Z,32.93
2018-03-26T14:03:32.216Z,33.57
2018-03-26T14:06:00.487Z,32.33
2018-03-26T14:08:40.702Z,32.47
2018-03-26T14:11:21.019Z,33.03
2018-03-26T14:14:01.277Z,32.40
2018-03-26T14:16:41.365Z,32.87
2018-03-26T14:19:09.630Z,34.00
2018-03-26T14:21:37.939Z,33.83
2018-03-26T14:24:06.263Z,35.13
2018-03-26T14:26:34.513Z,33.77
2018-03-26T14:29:02.834Z,34.30
2018-03-26T14:31:31.923Z,34.13
2018-03-26T14:34:01.009Z,33.67
2018-03-26T14:36:29.333Z,33.63
2018-03-26T14:38:57.615Z,31.80
2018-03-26T14:41:25.891Z,33.50
2018-03-26T14:43:54.184Z,33.13
2018-03-26T14:46:22.473Z,32.50
2018-03-26T14:48:50.961Z,33.67
2018-03-26T14:51:19.203Z,34.13
2018-03-26T14:53:47.479Z,33.87
2018-03-26T14:56:15.782Z,33.53
2018-03-26T14:58:44.810Z,33.47
2018-03-26T15:01:13.106Z,31.30
2018-03-26T15:03:41.373Z,32.33
2018-03-26T15:06:09.657Z,33.73
2018-03-26T15:08:37.944Z,31.57
2018-03-26T15:11:06.217Z,31.77
2018-03-26T15:13:34.504Z,31.93
2018-03-26T15:16:02.895Z,31.17
2018-03-26T15:18:31.183Z,31.87
2018-03-26T15:20:59.445Z,29.83
2018-03-26T15:23:27.839Z,30.47
2018-03-26T15:25:56.705Z,31.10
2018-03-26T15:28:24.977Z,30.87
2018-03-26T15:30:53.305Z,29.80
2018-03-26T15:33:21.677Z,30.53
2018-03-26T15:35:49.936Z,31.83
2018-03-26T15:38:18.227Z,30.00
2018-03-26T15:40:46.520Z,31.67
2018-03-26T15:43:14.865Z,30.77
2018-03-26T15:45:43.162Z,31.53
2018-03-26T15:48:11.427Z,28.03
2018-03-26T15:50:39.719Z,28.80
2018-03-26T15:53:07.979Z,31.10
2018-03-26T15:55:36.261Z,31.30
2018-03-26T15:58:04.542Z,28.97
2018-03-26T16:00:32.820Z,29.13
2018-03-26T16:03:06.817Z,27.60
2018-03-26T16:05:35.103Z,29.47
2018-03-26T16:08:03.401Z,29.50
2018-03-26T16:10:32.522Z,29.87
2018-03-26T16:13:00.862Z,29.67
2018-03-26T16:15:29.147Z,28.53
2018-03-26T16:17:58.201Z,29.13
2018-03-26T16:20:26.476Z,28.53
2018-03-26T16:22:54.767Z,29.37
2018-03-26T16:25:23.058Z,27.97
2018-03-26T16:27:52.129Z,28.03
2018-03-26T16:30:20.417Z,28.27
2018-03-26T16:32:48.678Z,28.57
2018-03-26T16:35:16.957Z,29.53
2018-03-26T16:37:46.183Z,27.90
2018-03-26T16:40:14.448Z,28.90
2018-03-26T16:42:44.524Z,28.47
2018-03-26T16:45:12.809Z,27.67
2018-03-26T16:47:41.118Z,29.07
2018-03-26T16:50:09.557Z,27.47
2018-03-26T16:52:37.815Z,28.83
2018-03-26T16:55:06.845Z,29.03
2018-03-26T16:57:35.128Z,28.20
2018-03-26T17:00:03.407Z,27.40
2018-03-26T17:02:31.771Z,29.17
2018-03-26T17:05:00.038Z,27.97
2018-03-26T17:07:28.330Z,29.10
2018-03-26T17:09:56.617Z,28.37
2018-03-26T17:12:24.893Z,28.60
2018-03-26T17:14:53.218Z,29.27
2018-03-26T17:17:22.247Z,29.73
2018-03-26T17:19:50.541Z,28.53
2018-03-26T17:22:18.842Z,28.00
2018-03-26T17:24:47.091Z,28.77
2018-03-26T17:27:15.488Z,29.63
2018-03-26T17:29:43.768Z,29.43
2018-03-26T17:32:12.032Z,29.57
2018-03-26T17:34:40.307Z,30.90
2018-03-26T17:37:08.648Z,29.37
2018-03-26T17:39:36.924Z,29.27
2018-03-26T17:42:05.263Z,31.47
2018-03-26T17:44:33.514Z,31.77
2018-03-26T17:47:01.862Z,31.40
2018-03-26T17:49:30.129Z,32.17
2018-03-26T17:51:59.170Z,31.87
2018-03-26T17:54:27.461Z,31.83
2018-03-26T17:56:55.773Z,31.63
2018-03-26T17:59:24.328Z,31.87
2018-03-26T18:01:53.377Z,32.50
2018-03-26T18:04:21.680Z,33.43
2018-03-26T18:06:49.953Z,32.63
2018-03-26T18:09:23.257Z,32.07
2018-03-26T18:11:52.347Z,32.30
2018-03-26T18:14:20.670Z,31.10
2018-03-26T18:16:48.948Z,32.23
2018-03-26T18:19:17.207Z,33.00
2018-03-26T18:21:45.488Z,32.73
2018-03-26T18:24:13.758Z,33.07
2018-03-26T18:26:42.905Z,30.90
2018-03-26T18:29:11.179Z,31.77
2018-03-26T18:31:39.478Z,32.43
2018-03-26T18:34:07.949Z,32.47
2018-03-26T18:36:36.200Z,32.30
2018-03-26T18:39:04.488Z,33.17
2018-03-26T18:41:32.804Z,32.50
2018-03-26T18:44:02.089Z,33.93
2018-03-26T18:46:30.380Z,33.53
2018-03-26T18:48:59.453Z,33.67
2018-03-26T18:51:27.776Z,31.93
2018-03-26T18:53:56.130Z,32.67
2018-03-26T18:56:24.388Z,34.27
2018-03-26T18:58:52.728Z,34.13
2018-03-26T19:01:21.715Z,35.50
2018-03-26T19:03:50.024Z,35.10
2018-03-26T19:06:18.349Z,33.80
2018-03-26T19:08:46.768Z,32.93
2018-03-26T19:11:15.032Z,34.33
2018-03-26T19:13:43.365Z,34.17
2018-03-26T19:16:12.454Z,33.90
2018-03-26T19:18:40.723Z,34.73
2018-03-26T19:21:08.975Z,34.67
2018-03-26T19:23:37.320Z,31.87
2018-03-26T19:26:05.533Z,31.37
2018-03-26T19:28:33.832Z,31.03
2018-03-26T19:31:02.101Z,32.27
2018-03-26T19:33:30.383Z,33.73
2018-03-26T19:35:58.649Z,33.33
2018-03-26T19:38:26.938Z,31.70
2018-03-26T19:40:55.998Z,33.03
2018-03-26T19:43:24.600Z,33.07
2018-03-26T19:45:53.042Z,31.83
2018-03-26T19:48:21.366Z,31.90
2018-03-26T19:50:49.661Z,33.67
2018-03-26T19:53:17.946Z,31.67
2018-03-26T19:55:46.216Z,32.03
2018-03-26T19:58:15.293Z,33.00
2018-03-26T20:00:43.557Z,32.70
2018-03-26T20:03:11.832Z,33.37
2018-03-26T20:05:40.121Z,31.93
2018-03-26T20:08:08.407Z,32.23
2018-03-26T20:10:37.517Z,31.30
2018-03-26T20:13:06.554Z,37.78
2018-03-26T20:15:34.857Z,33.77
2018-03-26T20:18:03.122Z,32.57
2018-03-26T20:20:31.385Z,37.37
2018-03-26T20:22:59.720Z,33.40
2018-03-26T20:25:28.766Z,32.97
2018-03-26T20:27:57.801Z,31.90
2018-03-26T20:30:26.858Z,31.50
2018-03-26T20:32:55.153Z,32.40
2018-03-26T20:35:23.420Z,32.63
2018-03-26T20:37:51.714Z,35.90
2018-03-26T20:40:19.974Z,36.60
2018-03-26T20:42:48.251Z,35.13
2018-03-26T20:45:16.532Z,32.87
2018-03-26T20:47:44.816Z,33.03
2018-03-26T20:50:13.080Z,33.30
2018-03-26T20:52:41.916Z,32.83
2018-03-26T20:55:10.263Z,31.93
2018-03-26T20:57:38.485Z,32.60
2018-03-26T21:00:06.761Z,32.83
2018-03-26T21:02:35.906Z,31.07
2018-03-26T21:05:05.793Z,32.63
2018-03-26T21:07:34.051Z,32.40
2018-03-26T21:10:02.335Z,32.50
2018-03-26T21:12:30.583Z,33.33
2018-03-26T21:14:58.896Z,34.90
2018-03-26T21:17:27.168Z,35.73
2018-03-26T21:19:55.429Z,34.90
2018-03-26T21:22:23.700Z,35.70
2018-03-26T21:24:51.968Z,37.97
2018-03-26T21:27:20.290Z,36.50
2018-03-26T21:29:48.546Z,36.97
2018-03-26T21:32:16.787Z,38.90
2018-03-26T21:34:45.047Z,38.60
2018-03-26T21:37:14.065Z,38.97
2018-03-26T21:39:42.327Z,41.10
2018-03-26T21:42:10.610Z,40.63
2018-03-26T21:44:38.905Z,40.33
2018-03-26T21:47:07.176Z,41.43
2018-03-26T21:49:35.446Z,40.80
2018-03-26T21:52:03.742Z,41.00
2018-03-26T21:54:32.002Z,41.40
2018-03-26T21:57:00.252Z,41.03
2018-03-26T21:59:29.404Z,41.33
2018-03-26T22:01:58.444Z,40.37
2018-03-26T22:04:27.463Z,41.80
2018-03-26T22:06:55.750Z,41.60
2018-03-26T22:09:24.000Z,41.83
2018-03-26T22:11:52.272Z,41.40
2018-03-26T22:14:21.287Z,40.47
2018-03-26T22:16:49.588Z,40.97
2018-03-26T22:19:17.845Z,43.63
2018-03-26T22:21:46.081Z,41.00
2018-03-26T22:24:15.120Z,41.57
2018-03-26T22:26:43.392Z,39.10
2018-03-26T22:29:11.671Z,39.70
2018-03-26T22:31:39.943Z,41.13
2018-03-26T22:34:08.262Z,39.57
2018-03-26T22:36:36.533Z,38.37
2018-03-26T22:39:04.823Z,39.13
2018-03-26T22:41:33.084Z,36.27
2018-03-26T22:44:01.342Z,34.93
2018-03-26T22:46:29.617Z,35.97
2018-03-26T22:48:57.873Z,36.87
2018-03-26T22:51:26.128Z,36.17
2018-03-26T22:53:54.429Z,37.00
2018-03-26T22:56:22.681Z,38.03
2018-03-26T22:58:50.964Z,37.83
2018-03-26T23:01:19.230Z,38.23
2018-03-26T23:03:47.498Z,39.50
2018-03-26T23:06:16.525Z,42.77
2018-03-26T23:08:44.784Z,41.40
2018-03-26T23:11:13.074Z,41.57
2018-03-26T23:13:41.337Z,40.57
2018-03-26T23:16:09.657Z,43.60
2018-03-26T23:18:37.896Z,41.80
2018-03-26T23:21:07.584Z,42.07
2018-03-26T23:23:36.633Z,42.77
2018-03-26T23:26:04.917Z,42.57
2018-03-26T23:28:33.160Z,43.00
2018-03-26T23:31:01.455Z,44.80
2018-03-26T23:33:30.489Z,45.13
2018-03-26T23:35:59.514Z,43.97
2018-03-26T23:38:27.797Z,43.83
2018-03-26T23:40:56.115Z,44.70
2018-03-26T23:43:24.393Z,41.47
2018-03-26T23:45:52.649Z,41.87
2018-03-26T23:48:20.927Z,42.97
2018-03-26T23:50:49.313Z,43.43
2018-03-26T23:53:17.591Z,44.50
2018-03-26T23:55:45.872Z,42.40
2018-03-26T23:58:14.154Z,41.93
